createdAt,value
2022-12-15T00:00:56.880Z,6.65
2022-12-15T00:03:47.204Z,5.65
2022-12-15T00:06:37.458Z,5.55
2022-12-15T00:09:30.855Z,5.97
2022-12-15T00:12:21.740Z,5.97
2022-12-15T00:15:11.987Z,6.60
2022-12-15T00:18:03.666Z,6.10
2022-12-15T00:20:54.560Z,5.90
2022-12-15T00:23:44.569Z,5.95
2022-12-15T00:26:35.437Z,5.57
2022-12-15T00:29:27.437Z,6.35
2022-12-15T00:35:09.119Z,4.93
2022-12-15T00:37:59.679Z,6.05
2022-12-15T00:40:32.696Z,5.07
2022-12-15T00:43:05.887Z,5.88
2022-12-15T00:45:56.053Z,5.90
2022-12-15T00:48:29.190Z,5.63
2022-12-15T00:51:02.559Z,5.97
2022-12-15T00:53:53.240Z,5.90
2022-12-15T00:56:43.522Z,5.70
2022-12-15T00:59:34.994Z,6.35
2022-12-15T01:02:25.594Z,6.07
2022-12-15T01:05:16.014Z,6.35
2022-12-15T01:08:07.423Z,5.63
2022-12-15T01:10:57.852Z,5.65
2022-12-15T01:13:49.804Z,5.25
2022-12-15T01:16:40.768Z,4.80
2022-12-15T01:19:31.628Z,4.50
2022-12-15T01:22:04.746Z,5.20
2022-12-15T01:24:39.456Z,4.70
2022-12-15T01:27:12.365Z,4.75
2022-12-15T01:29:45.515Z,5.25
2022-12-15T01:32:18.523Z,5.40
2022-12-15T01:34:51.870Z,5.65
2022-12-15T01:37:24.814Z,5.43
2022-12-15T01:40:16.463Z,5.88
2022-12-15T01:42:49.530Z,5.07
2022-12-15T01:45:48.748Z,5.60
2022-12-15T01:48:28.090Z,5.32
2022-12-15T01:51:07.232Z,4.82
2022-12-15T01:53:44.460Z,4.72
2022-12-15T01:56:19.570Z,3.95
2022-12-15T01:58:56.341Z,3.92
2022-12-15T02:01:29.736Z,3.80
2022-12-15T02:04:03.599Z,3.97
2022-12-15T02:06:37.757Z,3.65
2022-12-15T02:09:10.964Z,3.78
2022-12-15T02:12:01.009Z,3.70
2022-12-15T02:14:46.840Z,3.25
2022-12-15T02:17:34.200Z,3.83
2022-12-15T02:20:42.836Z,3.55
2022-12-15T02:23:50.627Z,3.97
2022-12-15T02:27:03.527Z,4.20
2022-12-15T02:30:07.984Z,3.75
2022-12-15T02:32:49.309Z,3.72
2022-12-15T02:35:26.050Z,3.88
2022-12-15T02:37:59.415Z,3.75
2022-12-15T02:40:32.351Z,3.80
2022-12-15T02:43:07.967Z,4.43
2022-12-15T02:45:58.389Z,3.90
2022-12-15T02:48:38.981Z,4.35
2022-12-15T02:51:26.694Z,4.10
2022-12-15T02:54:26.063Z,3.72
2022-12-15T02:57:07.107Z,4.25
2022-12-15T02:59:46.870Z,4.43
2022-12-15T03:02:21.454Z,4.50
2022-12-15T03:04:55.363Z,4.60
2022-12-15T03:07:29.081Z,5.03
2022-12-15T03:10:04.225Z,4.50
2022-12-15T03:12:37.625Z,4.40
2022-12-15T03:15:11.316Z,4.28
2022-12-15T03:17:45.824Z,3.97
2022-12-15T03:20:19.038Z,3.88
2022-12-15T03:22:52.229Z,4.28
2022-12-15T03:25:25.123Z,4.22
2022-12-15T03:27:58.222Z,4.47
2022-12-15T03:30:31.873Z,3.92
2022-12-15T03:33:06.370Z,3.90
2022-12-15T03:35:39.218Z,4.00
2022-12-15T03:38:12.175Z,4.20
2022-12-15T03:40:45.233Z,4.13
2022-12-15T03:43:18.270Z,4.63
2022-12-15T03:45:51.230Z,3.83
2022-12-15T03:48:25.508Z,3.97
2022-12-15T03:50:59.238Z,4.07
2022-12-15T03:53:32.684Z,4.18
2022-12-15T03:56:06.067Z,3.95
2022-12-15T03:58:39.212Z,4.82
2022-12-15T04:01:14.140Z,4.18
2022-12-15T04:03:48.935Z,4.07
2022-12-15T04:06:22.008Z,4.25
2022-12-15T04:08:56.304Z,3.78
2022-12-15T04:11:29.334Z,4.10
2022-12-15T04:14:02.869Z,4.65
2022-12-15T04:16:35.761Z,4.60
2022-12-15T04:19:27.386Z,4.30
2022-12-15T04:22:02.680Z,4.18
2022-12-15T04:24:53.302Z,4.30
2022-12-15T04:27:43.564Z,4.63
2022-12-15T04:30:36.939Z,3.78
2022-12-15T04:33:30.824Z,4.50
2022-12-15T04:36:23.972Z,4.03
2022-12-15T04:39:14.048Z,4.03
2022-12-15T04:42:05.963Z,3.75
2022-12-15T04:44:56.632Z,4.65
2022-12-15T04:47:47.949Z,4.32
2022-12-15T04:50:38.205Z,4.22
2022-12-15T04:53:33.884Z,4.60
2022-12-15T04:56:29.279Z,4.47
2022-12-15T04:59:20.391Z,4.90
2022-12-15T05:02:10.773Z,4.33
2022-12-15T05:05:01.500Z,4.93
2022-12-15T05:07:52.003Z,4.90
2022-12-15T05:10:43.502Z,4.18
2022-12-15T05:13:34.699Z,3.58
2022-12-15T05:16:25.896Z,4.25
2022-12-15T05:19:16.171Z,4.13
2022-12-15T05:22:06.804Z,4.05
2022-12-15T05:24:57.418Z,4.20
2022-12-15T05:27:49.712Z,4.53
2022-12-15T05:30:40.096Z,4.35
2022-12-15T05:33:13.230Z,4.30
2022-12-15T05:35:46.267Z,3.72
2022-12-15T05:38:19.515Z,4.07
2022-12-15T05:40:52.724Z,3.97
2022-12-15T05:43:27.463Z,4.10
2022-12-15T05:46:05.723Z,3.88
2022-12-15T05:48:38.903Z,3.72
2022-12-15T05:51:13.571Z,3.55
2022-12-15T05:53:46.447Z,3.10
2022-12-15T05:56:19.570Z,3.22
2022-12-15T05:58:54.490Z,3.63
2022-12-15T06:01:28.371Z,3.58
2022-12-15T06:04:01.611Z,3.60
2022-12-15T06:06:34.768Z,4.03
2022-12-15T06:09:08.895Z,4.10
2022-12-15T06:11:41.899Z,3.97
2022-12-15T06:14:16.391Z,4.10
2022-12-15T06:16:51.193Z,3.90
2022-12-15T06:19:24.791Z,4.07
2022-12-15T06:21:58.005Z,3.95
2022-12-15T06:24:31.118Z,3.58
2022-12-15T06:27:04.030Z,4.50
2022-12-15T06:29:38.568Z,3.53
2022-12-15T06:32:12.290Z,4.03
2022-12-15T06:34:45.570Z,4.00
2022-12-15T06:37:18.632Z,3.47
2022-12-15T06:39:51.674Z,4.03
2022-12-15T06:42:24.731Z,3.85
2022-12-15T06:44:59.114Z,3.80
2022-12-15T06:47:32.068Z,4.05
2022-12-15T06:50:05.249Z,4.15
2022-12-15T06:52:38.628Z,3.97
2022-12-15T06:55:11.918Z,3.55
2022-12-15T06:57:45.033Z,3.50
2022-12-15T07:00:38.220Z,3.33
2022-12-15T07:03:15.638Z,3.63
2022-12-15T07:05:48.841Z,3.60
2022-12-15T07:08:25.639Z,3.75
2022-12-15T07:11:04.226Z,3.67
2022-12-15T07:13:37.100Z,3.85
2022-12-15T07:16:12.781Z,3.42
2022-12-15T07:18:46.246Z,3.90
2022-12-15T07:21:19.643Z,3.90
2022-12-15T07:23:56.042Z,4.20
2022-12-15T07:26:30.390Z,4.30
2022-12-15T07:29:03.218Z,4.32
2022-12-15T07:31:37.547Z,4.63
2022-12-15T07:34:10.738Z,3.95
2022-12-15T07:36:48.481Z,4.07
2022-12-15T07:39:27.489Z,4.67
2022-12-15T07:42:01.321Z,4.32
2022-12-15T07:44:34.400Z,4.13
2022-12-15T07:47:08.638Z,4.68
2022-12-15T07:49:41.785Z,4.18
2022-12-15T07:52:14.883Z,4.40
2022-12-15T07:54:48.265Z,4.32
2022-12-15T07:57:21.243Z,4.90
2022-12-15T07:59:54.406Z,5.00
2022-12-15T08:02:28.991Z,4.82
2022-12-15T08:05:03.581Z,4.88
2022-12-15T08:07:36.953Z,4.72
2022-12-15T08:10:10.853Z,4.28
2022-12-15T08:12:43.654Z,4.88
2022-12-15T08:15:16.689Z,4.88
2022-12-15T08:17:56.124Z,4.63
2022-12-15T08:20:30.473Z,4.65
2022-12-15T08:23:04.057Z,4.78
2022-12-15T08:25:37.480Z,4.95
2022-12-15T08:28:12.824Z,4.32
2022-12-15T08:30:45.888Z,4.63
2022-12-15T08:33:20.625Z,4.68
2022-12-15T08:35:57.337Z,5.05
2022-12-15T08:38:31.150Z,4.47
2022-12-15T08:41:09.112Z,4.72
2022-12-15T08:43:48.100Z,5.35
2022-12-15T08:46:27.398Z,4.55
2022-12-15T08:49:03.498Z,4.63
2022-12-15T08:51:36.626Z,4.70
2022-12-15T08:54:10.552Z,5.47
2022-12-15T08:56:43.984Z,5.57
2022-12-15T08:59:17.122Z,5.22
2022-12-15T09:01:50.255Z,5.72
2022-12-15T09:04:24.959Z,6.25
2022-12-15T09:06:58.597Z,6.50
2022-12-15T09:09:31.527Z,7.47
2022-12-15T09:12:04.683Z,7.78
2022-12-15T09:14:37.851Z,6.68
2022-12-15T09:17:10.866Z,7.40
2022-12-15T09:19:45.530Z,7.88
2022-12-15T09:22:19.790Z,7.97
2022-12-15T09:24:52.644Z,7.72
2022-12-15T09:27:25.665Z,7.13
2022-12-15T09:29:59.192Z,7.95
2022-12-15T09:32:32.292Z,7.00
2022-12-15T09:35:07.885Z,7.47
2022-12-15T09:37:40.842Z,8.00
2022-12-15T09:40:15.118Z,8.15
2022-12-15T09:43:05.022Z,8.10
2022-12-15T09:45:53.320Z,8.02
2022-12-15T09:48:34.746Z,7.88
2022-12-15T09:51:16.040Z,7.82
2022-12-15T09:53:56.861Z,7.18
2022-12-15T09:56:40.919Z,8.10
2022-12-15T09:59:30.623Z,8.65
2022-12-15T10:02:30.586Z,7.70
2022-12-15T10:05:14.358Z,7.38
2022-12-15T10:07:50.336Z,8.55
2022-12-15T10:10:32.605Z,7.60
2022-12-15T10:15:51.992Z,7.07
2022-12-15T10:18:31.114Z,7.90
2022-12-15T10:21:04.135Z,8.55
2022-12-15T10:23:39.133Z,8.88
2022-12-15T10:26:21.212Z,8.32
2022-12-15T10:29:17.927Z,9.00
2022-12-15T10:31:54.920Z,8.15
2022-12-15T10:34:30.212Z,8.73
2022-12-15T10:37:04.216Z,9.13
2022-12-15T10:39:40.678Z,9.25
2022-12-15T10:42:23.388Z,9.05
2022-12-15T10:44:57.842Z,8.70
2022-12-15T10:47:36.532Z,8.48
2022-12-15T10:50:24.300Z,10.27
2022-12-15T10:52:58.172Z,8.90
2022-12-15T10:55:40.141Z,8.43
2022-12-15T10:58:19.107Z,8.60
2022-12-15T11:01:08.968Z,8.88
2022-12-15T11:03:42.383Z,9.23
2022-12-15T11:06:20.807Z,8.63
2022-12-15T11:08:57.333Z,8.77
2022-12-15T11:11:52.203Z,8.77
2022-12-15T11:14:29.709Z,8.48
2022-12-15T11:17:02.956Z,9.27
2022-12-15T11:19:43.659Z,9.43
2022-12-15T11:22:25.901Z,9.52
2022-12-15T11:25:06.784Z,8.75
2022-12-15T11:27:44.801Z,9.15
2022-12-15T11:30:20.571Z,9.00
2022-12-15T11:32:56.609Z,9.57
2022-12-15T11:35:34.648Z,9.02
2022-12-15T11:38:18.855Z,9.27
2022-12-15T11:40:52.668Z,9.40
2022-12-15T11:43:51.350Z,9.60
2022-12-15T11:46:27.808Z,9.32
2022-12-15T11:49:29.742Z,8.63
2022-12-15T11:52:09.005Z,9.02
2022-12-15T11:54:48.741Z,9.57
2022-12-15T11:57:44.828Z,8.95
2022-12-15T12:00:21.624Z,9.25
2022-12-15T12:03:06.903Z,9.27
2022-12-15T12:06:00.847Z,9.52
2022-12-15T12:08:51.149Z,9.68
2022-12-15T12:11:29.119Z,9.20
2022-12-15T12:14:20.437Z,9.20
2022-12-15T12:17:03.877Z,9.45
2022-12-15T12:19:42.693Z,8.98
2022-12-15T12:22:24.505Z,9.73
2022-12-15T12:25:00.931Z,9.10
2022-12-15T12:27:42.175Z,9.90
2022-12-15T12:30:17.383Z,9.70
2022-12-15T12:32:59.740Z,9.68
2022-12-15T12:35:41.009Z,9.57
2022-12-15T12:38:14.728Z,8.95
2022-12-15T12:40:58.886Z,9.68
2022-12-15T12:43:35.153Z,9.63
2022-12-15T12:46:16.182Z,10.27
2022-12-15T12:48:56.282Z,9.50
2022-12-15T12:51:32.156Z,9.98
2022-12-15T12:54:39.877Z,9.88
2022-12-15T12:57:31.864Z,9.15
2022-12-15T13:03:11.402Z,8.45
2022-12-15T13:05:50.578Z,9.40
2022-12-15T13:08:45.942Z,9.75
2022-12-15T13:11:57.698Z,9.07
2022-12-15T13:14:42.093Z,9.05
2022-12-15T13:17:27.888Z,9.43
2022-12-15T13:20:19.070Z,9.43
2022-12-15T13:22:54.740Z,9.13
2022-12-15T13:25:42.997Z,9.38
2022-12-15T13:28:32.442Z,9.82
2022-12-15T13:31:28.806Z,9.40
2022-12-15T13:34:23.751Z,8.68
2022-12-15T13:37:01.879Z,9.68
2022-12-15T13:39:56.131Z,9.77
2022-12-15T13:42:51.279Z,8.88
2022-12-15T13:45:36.878Z,9.40
2022-12-15T13:48:31.590Z,9.40
2022-12-15T13:51:30.087Z,8.30
2022-12-15T13:54:06.137Z,8.50
2022-12-15T13:56:50.805Z,8.55
2022-12-15T13:59:44.066Z,9.27
2022-12-15T14:02:26.668Z,9.32
2022-12-15T14:05:16.178Z,9.05
2022-12-15T14:10:49.004Z,9.65
2022-12-15T14:13:31.029Z,9.40
2022-12-15T14:16:16.526Z,9.63
2022-12-15T14:19:05.589Z,10.38
2022-12-15T14:21:38.383Z,10.27
2022-12-15T14:24:38.535Z,9.65
2022-12-15T14:27:24.236Z,10.13
2022-12-15T14:30:22.925Z,9.80
2022-12-15T14:33:00.183Z,11.07
2022-12-15T14:35:37.603Z,10.35
2022-12-15T14:38:17.078Z,10.43
2022-12-15T14:40:52.113Z,10.18
2022-12-15T14:43:30.166Z,10.73
2022-12-15T14:46:17.044Z,11.23
2022-12-15T14:48:55.444Z,11.02
2022-12-15T14:51:32.699Z,12.65
2022-12-15T14:54:06.013Z,10.73
2022-12-15T14:56:39.594Z,11.82
2022-12-15T14:59:21.482Z,11.20
2022-12-15T15:04:34.385Z,10.52
2022-12-15T15:07:16.157Z,11.90
2022-12-15T15:09:49.449Z,11.75
2022-12-15T15:12:24.351Z,12.00
2022-12-15T15:15:04.343Z,13.00
2022-12-15T15:17:43.967Z,11.45
2022-12-15T15:20:23.085Z,11.95
2022-12-15T15:23:14.854Z,13.15
2022-12-15T15:25:52.520Z,12.43
2022-12-15T15:28:28.189Z,13.15
2022-12-15T15:31:06.372Z,13.32
2022-12-15T15:33:40.635Z,13.32
2022-12-15T15:36:14.027Z,12.93
2022-12-15T15:38:48.134Z,12.77
2022-12-15T15:41:28.862Z,13.95
2022-12-15T15:44:03.494Z,14.52
2022-12-15T15:46:39.914Z,13.82
2022-12-15T15:49:18.264Z,13.43
2022-12-15T15:51:51.447Z,14.70
2022-12-15T15:54:31.252Z,14.23
2022-12-15T15:57:04.443Z,14.55
2022-12-15T15:59:42.177Z,14.93
2022-12-15T16:02:15.918Z,14.73
2022-12-15T16:04:50.703Z,15.73
2022-12-15T16:07:26.165Z,15.05
2022-12-15T16:09:59.191Z,14.70
2022-12-15T16:12:37.056Z,15.40
2022-12-15T16:15:15.610Z,15.07
2022-12-15T16:17:49.038Z,15.20
2022-12-15T16:20:26.981Z,15.93
2022-12-15T16:23:02.710Z,17.08
2022-12-15T16:25:48.403Z,16.85
2022-12-15T16:28:26.307Z,16.30
2022-12-15T16:31:01.694Z,17.90
2022-12-15T16:33:34.832Z,16.65
2022-12-15T16:36:14.084Z,16.88
2022-12-15T16:38:47.374Z,17.40
2022-12-15T16:41:23.277Z,18.17
2022-12-15T16:43:56.193Z,17.80
2022-12-15T16:46:29.375Z,18.88
2022-12-15T16:49:02.320Z,17.90
2022-12-15T16:51:40.024Z,17.80
2022-12-15T16:54:19.090Z,16.70
2022-12-15T16:56:53.454Z,17.75
2022-12-15T16:59:36.177Z,17.05
2022-12-15T17:02:24.734Z,16.33
2022-12-15T17:04:59.020Z,16.67
2022-12-15T17:07:33.235Z,16.88
2022-12-15T17:10:07.135Z,17.27
2022-12-15T17:12:40.050Z,17.75
2022-12-15T17:15:24.905Z,17.40
2022-12-15T17:17:58.187Z,19.65
2022-12-15T17:20:31.669Z,17.63
2022-12-15T17:23:10.858Z,17.45
2022-12-15T17:26:19.530Z,19.05
2022-12-15T17:28:40.669Z,16.52
2022-12-15T17:31:19.275Z,18.40
2022-12-15T17:33:52.870Z,19.85
2022-12-15T17:36:29.096Z,18.27
2022-12-15T17:39:03.538Z,19.17
2022-12-15T17:42:08.051Z,19.67
2022-12-15T17:44:35.627Z,20.63
2022-12-15T17:47:10.330Z,19.30
2022-12-15T17:49:43.490Z,20.83
2022-12-15T17:52:25.565Z,19.75
2022-12-15T17:55:00.064Z,18.63
2022-12-15T17:57:32.941Z,18.75
2022-12-15T18:00:17.239Z,18.13
2022-12-15T18:02:50.440Z,19.20
2022-12-15T18:08:35.207Z,17.42
2022-12-15T18:11:25.934Z,17.45
2022-12-15T18:13:59.044Z,17.60
2022-12-15T18:16:34.530Z,18.15
2022-12-15T18:19:07.655Z,17.27
2022-12-15T18:21:40.644Z,18.55
2022-12-15T18:24:14.367Z,16.10
2022-12-15T18:26:48.807Z,19.08
2022-12-15T18:29:22.164Z,19.60
2022-12-15T18:31:55.026Z,19.35
2022-12-15T18:34:28.244Z,18.95
2022-12-15T18:37:01.105Z,20.15
2022-12-15T18:39:34.264Z,20.80
2022-12-15T18:42:13.566Z,20.08
2022-12-15T18:44:49.396Z,20.27
2022-12-15T18:47:25.032Z,18.38
2022-12-15T18:49:58.389Z,20.13
2022-12-15T18:52:34.660Z,20.38
2022-12-15T18:55:21.095Z,20.55
2022-12-15T18:57:55.720Z,18.80
2022-12-15T19:00:32.593Z,19.00
2022-12-15T19:03:06.140Z,19.27
2022-12-15T19:05:39.880Z,19.15
2022-12-15T19:08:15.520Z,18.20
2022-12-15T19:10:52.093Z,18.08
2022-12-15T19:13:31.465Z,16.38
2022-12-15T19:16:07.245Z,16.20
2022-12-15T19:18:57.617Z,15.43
2022-12-15T19:21:49.734Z,15.70
2022-12-15T19:24:46.242Z,15.40
2022-12-15T19:27:23.195Z,13.68
2022-12-15T19:29:57.924Z,15.77
2022-12-15T19:32:30.967Z,16.10
2022-12-15T19:35:04.428Z,14.38
2022-12-15T19:37:39.672Z,14.05
2022-12-15T19:40:22.259Z,14.48
2022-12-15T19:42:55.514Z,13.88
2022-12-15T19:45:31.748Z,14.77
2022-12-15T19:48:04.820Z,14.77
2022-12-15T19:50:38.898Z,13.80
2022-12-15T19:53:17.451Z,14.82
2022-12-15T19:55:50.316Z,14.25
2022-12-15T19:58:29.751Z,13.98
2022-12-15T20:01:07.214Z,13.65
2022-12-15T20:03:40.619Z,14.95
2022-12-15T20:06:17.426Z,14.50
2022-12-15T20:08:52.292Z,12.55
2022-12-15T20:11:30.082Z,13.02
2022-12-15T20:14:05.275Z,14.30
2022-12-15T20:16:39.631Z,11.57
2022-12-15T20:19:12.640Z,13.02
2022-12-15T20:21:45.634Z,13.38
2022-12-15T20:24:20.478Z,12.07
2022-12-15T20:26:53.384Z,12.73
2022-12-15T20:29:29.743Z,11.75
2022-12-15T20:32:04.117Z,11.65
2022-12-15T20:34:37.190Z,11.68
2022-12-15T20:37:18.915Z,12.05
2022-12-15T20:39:57.175Z,11.40
2022-12-15T20:42:30.633Z,10.88
2022-12-15T20:45:04.197Z,11.25
2022-12-15T20:47:42.388Z,11.80
2022-12-15T20:50:28.001Z,11.25
2022-12-15T20:53:01.097Z,11.73
2022-12-15T20:55:34.490Z,10.65
2022-12-15T20:58:07.355Z,10.90
2022-12-15T21:00:40.816Z,11.35
2022-12-15T21:03:25.075Z,10.07
2022-12-15T21:05:59.339Z,11.32
2022-12-15T21:08:33.220Z,10.93
2022-12-15T21:11:15.303Z,12.93
2022-12-15T21:13:50.427Z,10.77
2022-12-15T21:16:26.079Z,12.45
2022-12-15T21:21:56.018Z,11.73
2022-12-15T21:24:29.857Z,10.85
2022-12-15T21:27:04.139Z,13.07
2022-12-15T21:29:37.326Z,12.77
2022-12-15T21:32:10.710Z,12.65
2022-12-15T21:34:45.933Z,12.55
2022-12-15T21:37:25.001Z,12.48
2022-12-15T21:39:59.454Z,11.93
2022-12-15T21:42:36.353Z,11.82
2022-12-15T21:45:15.188Z,12.13
2022-12-15T21:48:06.413Z,11.90
2022-12-15T21:50:43.423Z,11.57
2022-12-15T21:53:17.680Z,11.32
2022-12-15T21:55:50.912Z,11.70
2022-12-15T21:58:25.067Z,12.10
2022-12-15T22:00:58.002Z,11.82
2022-12-15T22:03:30.959Z,11.35
2022-12-15T22:06:05.520Z,11.18
2022-12-15T22:08:38.367Z,11.90
2022-12-15T22:11:20.078Z,10.80
2022-12-15T22:13:55.199Z,11.93
2022-12-15T22:16:28.605Z,12.20
2022-12-15T22:19:02.140Z,11.65
2022-12-15T22:21:36.260Z,11.40
2022-12-15T22:24:09.970Z,12.15
2022-12-15T22:26:43.256Z,13.43
2022-12-15T22:29:18.683Z,11.73
2022-12-15T22:31:52.104Z,13.05
2022-12-15T22:34:27.855Z,12.98
2022-12-15T22:37:02.073Z,13.20
2022-12-15T22:39:35.069Z,12.70
2022-12-15T22:42:09.146Z,13.55
2022-12-15T22:44:42.038Z,12.82
2022-12-15T22:47:15.177Z,13.35
2022-12-15T22:49:47.964Z,12.55
2022-12-15T22:52:22.574Z,13.20
2022-12-15T22:54:56.995Z,12.77
2022-12-15T22:57:30.432Z,13.35
2022-12-15T23:00:07.741Z,12.75
2022-12-15T23:02:44.066Z,12.65
2022-12-15T23:05:19.803Z,13.50
2022-12-15T23:07:54.561Z,11.75
2022-12-15T23:10:45.405Z,12.57
2022-12-15T23:13:18.374Z,11.93
2022-12-15T23:16:09.217Z,11.23
2022-12-15T23:18:42.099Z,12.32
2022-12-15T23:21:14.976Z,13.00
2022-12-15T23:23:49.300Z,13.35
2022-12-15T23:26:25.959Z,13.30
2022-12-15T23:28:58.931Z,12.20
2022-12-15T23:31:32.041Z,11.90
2022-12-15T23:34:04.892Z,11.77
2022-12-15T23:36:37.810Z,11.75
2022-12-15T23:39:12.092Z,12.02
2022-12-15T23:41:45.063Z,11.70
2022-12-15T23:44:17.973Z,13.35
2022-12-15T23:46:50.953Z,12.07
2022-12-15T23:49:23.797Z,13.35
2022-12-15T23:51:56.987Z,13.10
2022-12-15T23:54:33.452Z,12.13
2022-12-15T23:57:06.283Z,12.00
2022-12-15T23:59:39.097Z,11.38
